Time;durP1;ratioP1;P1;durP2;ratioP2;P2;SDS_P1;SDS_P2;PMS_P1;PMS_P2;Temp;Humidity;BMP_temperature;BMP_pressure;BME280_temperature;BME280_humidity;BME280_pressure;Samples;Min_cycle;Max_cycle;Signal;HPM_P1;HPM_P2
2023/07/16 00:00:31;;;;;;;57.27;2.63;;;;;;;;;;4990943;28;20461;-71
2023/07/16 00:02:58;;;;;;;56.70;2.30;;;;;;;;;;4990897;28;20471;-70
2023/07/16 00:05:25;;;;;;;57.10;2.33;;;;;;;;;;4993637;28;20447;-71
2023/07/16 00:07:52;;;;;;;61.97;4.50;;;;;;;;;;4995036;28;20509;-70
2023/07/16 00:10:20;;;;;;;56.63;2.30;;;;;;;;;;4994776;28;20552;-71
2023/07/16 00:12:47;;;;;;;57.40;2.70;;;;;;;;;;4994860;28;20466;-71
2023/07/16 00:15:14;;;;;;;57.00;2.40;;;;;;;;;;4994817;28;20545;-71
2023/07/16 00:17:43;;;;;;;56.97;2.40;;;;;;;;;;4994432;28;20462;-71
2023/07/16 00:20:10;;;;;;;56.87;2.30;;;;;;;;;;4986587;28;20446;-70
2023/07/16 00:22:38;;;;;;;56.97;2.40;;;;;;;;;;4994494;28;20479;-71
2023/07/16 00:25:06;;;;;;;56.77;2.37;;;;;;;;;;4994671;28;20818;-70
2023/07/16 00:27:33;;;;;;;57.10;2.77;;;;;;;;;;4994298;28;20843;-71
2023/07/16 00:30:00;;;;;;;56.87;2.40;;;;;;;;;;4994303;28;20811;-71
2023/07/16 00:32:27;;;;;;;57.07;2.30;;;;;;;;;;4994636;28;20847;-71
2023/07/16 00:34:56;;;;;;;56.80;2.30;;;;;;;;;;4994593;28;20494;-71
2023/07/16 00:37:23;;;;;;;57.00;2.30;;;;;;;;;;4994120;28;20455;-71
2023/07/16 00:39:50;;;;;;;56.73;2.30;;;;;;;;;;4994296;28;20803;-70
2023/07/16 00:42:17;;;;;;;56.47;2.30;;;;;;;;;;4994379;28;20537;-71
2023/07/16 00:44:44;;;;;;;57.07;2.60;;;;;;;;;;4993960;28;20816;-70
2023/07/16 00:47:11;;;;;;;56.80;2.23;;;;;;;;;;4994130;28;21037;-71
2023/07/16 00:49:39;;;;;;;56.90;2.37;;;;;;;;;;4994187;28;20451;-70
2023/07/16 00:52:09;;;;;;;56.90;2.20;;;;;;;;;;4993804;28;20470;-69
2023/07/16 00:54:36;;;;;;;56.67;2.30;;;;;;;;;;4993977;28;20454;-70
2023/07/16 00:57:03;;;;;;;56.80;2.20;;;;;;;;;;4994270;28;20451;-69
2023/07/16 00:59:30;;;;;;;57.20;2.93;;;;;;;;;;4994123;28;20451;-70
2023/07/16 01:01:57;;;;;;;56.97;2.43;;;;;;;;;;4993533;28;20479;-70
2023/07/16 01:04:24;;;;;;;56.77;2.03;;;;;;;;;;4993912;28;20455;-70
2023/07/16 01:06:53;;;;;;;56.47;2.03;;;;;;;;;;4993637;28;20462;-69
2023/07/16 01:09:22;;;;;;;56.87;2.43;;;;;;;;;;4993692;28;20477;-70
2023/07/16 01:11:49;;;;;;;57.00;2.10;;;;;;;;;;4993215;28;20471;-70
2023/07/16 01:14:18;;;;;;;56.77;2.10;;;;;;;;;;4993797;28;20455;-70
2023/07/16 01:16:45;;;;;;;56.67;2.10;;;;;;;;;;4993162;28;20451;-70
2023/07/16 01:19:13;;;;;;;56.80;2.47;;;;;;;;;;4993616;28;20460;-70
2023/07/16 01:21:41;;;;;;;56.87;2.40;;;;;;;;;;4993472;28;20481;-70
2023/07/16 01:24:23;;;;;;;56.47;2.10;;;;;;;;;;4993406;28;20457;-70
2023/07/16 01:27:02;;;;;;;56.80;2.10;;;;;;;;;;4993547;28;20459;-70
2023/07/16 01:29:32;;;;;;;57.20;2.23;;;;;;;;;;4993530;28;20791;-70
2023/07/16 01:32:01;;;;;;;56.97;2.30;;;;;;;;;;4993108;28;20478;-69
2023/07/16 01:34:30;;;;;;;56.80;2.47;;;;;;;;;;4993658;28;20509;-69
2023/07/16 01:36:57;;;;;;;56.90;2.47;;;;;;;;;;4993008;28;20962;-70
2023/07/16 01:39:24;;;;;;;56.90;2.00;;;;;;;;;;4993359;28;20453;-69
2023/07/16 01:41:51;;;;;;;56.80;2.20;;;;;;;;;;4992946;28;20849;-70
2023/07/16 01:44:18;;;;;;;56.87;2.30;;;;;;;;;;4991804;28;20469;-70
2023/07/16 01:46:51;;;;;;;56.60;2.30;;;;;;;;;;4993052;28;20451;-70
2023/07/16 01:49:18;;;;;;;56.77;2.30;;;;;;;;;;4993054;28;20820;-69
2023/07/16 01:51:45;;;;;;;56.67;2.43;;;;;;;;;;4992615;28;20466;-70
2023/07/16 01:54:12;;;;;;;56.83;2.10;;;;;;;;;;4992805;28;20823;-69
2023/07/16 01:56:39;;;;;;;56.73;2.10;;;;;;;;;;4992693;28;20465;-70
2023/07/16 01:59:06;;;;;;;56.67;2.20;;;;;;;;;;4992303;28;20456;-69
2023/07/16 02:01:33;;;;;;;56.60;2.00;;;;;;;;;;4992207;28;20987;-70
2023/07/16 02:04:02;;;;;;;56.80;2.10;;;;;;;;;;4992580;28;20457;-69
2023/07/16 02:06:29;;;;;;;56.57;1.90;;;;;;;;;;4992368;28;20458;-69
2023/07/16 02:08:56;;;;;;;56.50;2.20;;;;;;;;;;4992766;28;20842;-70
2023/07/16 02:11:23;;;;;;;56.43;2.10;;;;;;;;;;4992347;28;20475;-70
2023/07/16 02:13:50;;;;;;;56.67;2.17;;;;;;;;;;4992497;28;20453;-69
2023/07/16 02:16:17;;;;;;;56.87;2.83;;;;;;;;;;4992389;28;20943;-69
2023/07/16 02:18:44;;;;;;;56.57;2.30;;;;;;;;;;4992463;28;20449;-69
2023/07/16 02:21:13;;;;;;;56.83;2.20;;;;;;;;;;4992003;28;20779;-69
2023/07/16 02:23:40;;;;;;;56.87;2.27;;;;;;;;;;4992526;28;20818;-70
2023/07/16 02:26:07;;;;;;;56.57;2.10;;;;;;;;;;4992399;28;20457;-69
2023/07/16 02:28:34;;;;;;;58.27;3.03;;;;;;;;;;4991544;28;20490;-70
2023/07/16 02:31:01;;;;;;;57.00;2.20;;;;;;;;;;4991886;28;20974;-69
2023/07/16 02:33:28;;;;;;;57.20;2.93;;;;;;;;;;4992044;28;20977;-70
2023/07/16 02:35:55;;;;;;;56.87;2.10;;;;;;;;;;4991939;28;20443;-70
2023/07/16 02:38:24;;;;;;;56.90;2.40;;;;;;;;;;4992129;28;20462;-70
2023/07/16 02:40:51;;;;;;;56.80;2.27;;;;;;;;;;4991764;28;20514;-69
2023/07/16 02:43:18;;;;;;;56.97;2.60;;;;;;;;;;4992055;28;20454;-70
2023/07/16 02:45:45;;;;;;;56.63;2.10;;;;;;;;;;4992007;28;20450;-70
2023/07/16 02:48:12;;;;;;;56.83;2.50;;;;;;;;;;4991809;28;20626;-70
2023/07/16 02:50:39;;;;;;;57.07;2.40;;;;;;;;;;4991791;28;20474;-70
2023/07/16 02:53:07;;;;;;;57.00;2.30;;;;;;;;;;4991956;28;20510;-69
2023/07/16 02:55:36;;;;;;;57.17;2.10;;;;;;;;;;4992147;28;20465;-68
2023/07/16 02:58:04;;;;;;;56.97;2.57;;;;;;;;;;4991919;28;20533;-70
2023/07/16 03:00:31;;;;;;;56.97;2.20;;;;;;;;;;4991546;28;20462;-70
2023/07/16 03:02:59;;;;;;;56.87;2.10;;;;;;;;;;4991594;28;20471;-69
2023/07/16 03:05:26;;;;;;;57.07;2.30;;;;;;;;;;4991921;28;20923;-69
2023/07/16 03:07:53;;;;;;;57.00;2.20;;;;;;;;;;4991758;28;20483;-70
2023/07/16 03:10:21;;;;;;;57.00;2.10;;;;;;;;;;4991529;28;20948;-69
2023/07/16 03:12:49;;;;;;;56.97;2.40;;;;;;;;;;4991688;28;20467;-70
2023/07/16 03:15:17;;;;;;;57.10;2.30;;;;;;;;;;4991657;28;20447;-69
2023/07/16 03:17:44;;;;;;;57.07;2.50;;;;;;;;;;4991571;28;20457;-70
2023/07/16 03:20:13;;;;;;;56.83;2.17;;;;;;;;;;4991628;28;20807;-70
2023/07/16 03:22:40;;;;;;;56.87;2.10;;;;;;;;;;4991703;28;20487;-70
2023/07/16 03:25:07;;;;;;;56.93;2.50;;;;;;;;;;4991747;28;20450;-69
2023/07/16 03:27:34;;;;;;;56.90;2.40;;;;;;;;;;4991513;28;20838;-70
2023/07/16 03:30:04;;;;;;;57.00;2.30;;;;;;;;;;4991575;28;20493;-70
2023/07/16 03:32:31;;;;;;;56.97;2.20;;;;;;;;;;4991672;28;20466;-69
2023/07/16 03:34:58;;;;;;;56.70;2.40;;;;;;;;;;4991688;28;20470;-70
2023/07/16 03:37:25;;;;;;;56.90;2.43;;;;;;;;;;4991591;28;20458;-70
2023/07/16 03:39:52;;;;;;;56.83;2.50;;;;;;;;;;4994708;28;20453;-70
2023/07/16 03:42:19;;;;;;;56.87;2.30;;;;;;;;;;4994723;28;20471;-69
2023/07/16 03:44:46;;;;;;;56.67;2.27;;;;;;;;;;4995043;28;20466;-70
2023/07/16 03:47:15;;;;;;;57.20;2.60;;;;;;;;;;4995278;28;20453;-70
2023/07/16 03:49:42;;;;;;;57.10;2.73;;;;;;;;;;4995192;28;20578;-69
2023/07/16 03:52:09;;;;;;;57.10;2.40;;;;;;;;;;4994953;28;20470;-69
2023/07/16 03:54:36;;;;;;;56.87;2.20;;;;;;;;;;4995143;28;20478;-70
2023/07/16 03:57:03;;;;;;;56.97;2.30;;;;;;;;;;4994851;28;20447;-69
2023/07/16 03:59:30;;;;;;;57.70;2.87;;;;;;;;;;4994493;28;20462;-70
2023/07/16 04:01:57;;;;;;;56.77;2.10;;;;;;;;;;4994493;28;20479;-70
2023/07/16 04:04:26;;;;;;;56.80;2.30;;;;;;;;;;4994953;28;20476;-70
2023/07/16 04:06:53;;;;;;;56.80;2.40;;;;;;;;;;4995099;28;20458;-67
2023/07/16 04:09:20;;;;;;;56.90;2.30;;;;;;;;;;4994717;28;20493;-70
2023/07/16 04:11:47;;;;;;;56.80;2.60;;;;;;;;;;4994314;28;20990;-70
2023/07/16 04:14:14;;;;;;;56.67;2.30;;;;;;;;;;4994781;28;20462;-69
2023/07/16 04:16:41;;;;;;;56.80;2.30;;;;;;;;;;4994391;28;20507;-70
2023/07/16 04:19:10;;;;;;;57.17;2.60;;;;;;;;;;4994779;28;20830;-70
2023/07/16 04:21:39;;;;;;;56.80;2.03;;;;;;;;;;4994352;28;20470;-69
2023/07/16 04:24:06;;;;;;;56.80;2.47;;;;;;;;;;4994484;28;20463;-69
2023/07/16 04:26:33;;;;;;;57.10;2.60;;;;;;;;;;4994681;28;20811;-70
2023/07/16 04:29:00;;;;;;;56.77;2.30;;;;;;;;;;4994293;28;20490;-69
2023/07/16 04:31:27;;;;;;;56.87;2.33;;;;;;;;;;4994094;28;20467;-70
2023/07/16 04:33:54;;;;;;;56.87;2.40;;;;;;;;;;4994472;28;20447;-69
2023/07/16 04:36:21;;;;;;;56.80;2.40;;;;;;;;;;4994388;28;20450;-70
2023/07/16 04:38:50;;;;;;;57.07;2.50;;;;;;;;;;4994152;28;20447;-69
2023/07/16 04:41:17;;;;;;;56.57;2.20;;;;;;;;;;4994154;28;20474;-69
2023/07/16 04:43:45;;;;;;;56.77;2.20;;;;;;;;;;4994058;28;20463;-69
2023/07/16 04:46:12;;;;;;;57.07;2.30;;;;;;;;;;4994287;28;20462;-69
2023/07/16 04:48:39;;;;;;;56.93;2.20;;;;;;;;;;4994025;28;20482;-69
2023/07/16 04:51:06;;;;;;;56.67;2.30;;;;;;;;;;4992994;28;20470;-71
2023/07/16 04:53:33;;;;;;;56.67;2.30;;;;;;;;;;4994235;28;20451;-69
2023/07/16 04:56:01;;;;;;;56.80;2.87;;;;;;;;;;4994110;28;20453;-70
2023/07/16 04:58:28;;;;;;;56.83;2.27;;;;;;;;;;4994207;28;20454;-69
2023/07/16 05:00:55;;;;;;;56.70;2.20;;;;;;;;;;4993622;28;20822;-69
2023/07/16 05:03:22;;;;;;;56.70;2.40;;;;;;;;;;4994297;28;20470;-70
2023/07/16 05:05:50;;;;;;;57.07;2.47;;;;;;;;;;4993583;28;20447;-69
2023/07/16 05:08:17;;;;;;;57.00;2.30;;;;;;;;;;4993884;28;20451;-70
2023/07/16 05:10:44;;;;;;;56.70;2.20;;;;;;;;;;4993741;28;20450;-69
2023/07/16 05:13:12;;;;;;;56.80;2.40;;;;;;;;;;4993792;28;20443;-69
2023/07/16 05:15:39;;;;;;;57.13;3.03;;;;;;;;;;4993613;28;20454;-70
2023/07/16 05:18:06;;;;;;;56.87;2.10;;;;;;;;;;4993594;28;20761;-69
2023/07/16 05:20:33;;;;;;;56.80;2.20;;;;;;;;;;4993452;28;20449;-70
2023/07/16 05:23:00;;;;;;;56.67;2.27;;;;;;;;;;4993390;28;20474;-70
2023/07/16 05:25:28;;;;;;;57.00;2.00;;;;;;;;;;4993675;28;20818;-70
2023/07/16 05:27:55;;;;;;;56.87;2.57;;;;;;;;;;4993562;28;20447;-70
2023/07/16 05:30:23;;;;;;;58.80;2.40;;;;;;;;;;4992927;28;20491;-70
2023/07/16 05:32:50;;;;;;;56.77;2.70;;;;;;;;;;4993159;28;21005;-70
2023/07/16 05:35:17;;;;;;;56.67;2.47;;;;;;;;;;4993270;28;20951;-71
2023/07/16 05:37:44;;;;;;;56.70;2.10;;;;;;;;;;4993333;28;20823;-71
2023/07/16 05:40:12;;;;;;;56.67;2.30;;;;;;;;;;4993137;28;20443;-71
2023/07/16 05:42:39;;;;;;;56.77;2.27;;;;;;;;;;4993119;28;20478;-70
2023/07/16 05:45:06;;;;;;;56.67;2.30;;;;;;;;;;4992878;28;20926;-71
2023/07/16 05:47:35;;;;;;;56.77;2.13;;;;;;;;;;4992856;28;20451;-71
2023/07/16 05:50:02;;;;;;;56.87;2.93;;;;;;;;;;4992928;28;20503;-70
2023/07/16 05:52:30;;;;;;;57.93;3.00;;;;;;;;;;4992952;28;20475;-70
2023/07/16 05:54:57;;;;;;;56.57;2.10;;;;;;;;;;4992954;28;20848;-70
2023/07/16 05:57:24;;;;;;;56.57;2.10;;;;;;;;;;4992768;28;20458;-71
2023/07/16 05:59:51;;;;;;;56.93;2.27;;;;;;;;;;4991972;28;20458;-71
2023/07/16 06:02:18;;;;;;;56.80;2.30;;;;;;;;;;4991715;28;20990;-71
2023/07/16 06:04:46;;;;;;;56.40;2.40;;;;;;;;;;4992706;28;20462;-69
2023/07/16 06:07:14;;;;;;;56.70;2.20;;;;;;;;;;4992338;28;20459;-70
2023/07/16 06:09:41;;;;;;;57.87;2.40;;;;;;;;;;4992558;28;20478;-70
2023/07/16 06:12:08;;;;;;;56.90;2.30;;;;;;;;;;4992270;28;20478;-69
2023/07/16 06:14:35;;;;;;;56.60;2.10;;;;;;;;;;4992460;28;20457;-70
2023/07/16 06:17:02;;;;;;;56.13;1.80;;;;;;;;;;4992689;28;20457;-70
2023/07/16 06:19:29;;;;;;;56.53;2.23;;;;;;;;;;4992493;28;20804;-70
2023/07/16 06:21:58;;;;;;;58.90;3.67;;;;;;;;;;4992093;28;20482;-70
2023/07/16 06:24:26;;;;;;;56.43;2.00;;;;;;;;;;4992473;28;20447;-70
2023/07/16 06:26:53;;;;;;;56.33;1.87;;;;;;;;;;4992250;28;20466;-70
2023/07/16 06:29:20;;;;;;;56.80;2.20;;;;;;;;;;4992150;28;20485;-70
2023/07/16 06:31:56;;;;;;;56.80;1.90;;;;;;;;;;4992166;28;20485;-70
2023/07/16 06:34:23;;;;;;;56.87;2.37;;;;;;;;;;4992197;28;20959;-71
2023/07/16 06:36:51;;;;;;;57.30;2.27;;;;;;;;;;4992155;28;20451;-70
2023/07/16 06:39:19;;;;;;;56.90;2.20;;;;;;;;;;4992281;28;20453;-70
2023/07/16 06:41:46;;;;;;;56.53;2.03;;;;;;;;;;4991694;28;20500;-70
2023/07/16 06:44:13;;;;;;;56.77;2.17;;;;;;;;;;4992037;28;20471;-71
2023/07/16 06:46:40;;;;;;;58.80;4.10;;;;;;;;;;4992131;28;20455;-70
2023/07/16 06:49:07;;;;;;;56.43;2.00;;;;;;;;;;4991934;28;20487;-71
2023/07/16 06:51:35;;;;;;;56.50;1.90;;;;;;;;;;4991691;28;20475;-70
2023/07/16 06:54:02;;;;;;;56.57;2.07;;;;;;;;;;4991811;28;20466;-71
2023/07/16 06:56:30;;;;;;;56.37;1.80;;;;;;;;;;4991974;28;20974;-70
2023/07/16 06:58:57;;;;;;;56.30;1.80;;;;;;;;;;4991962;28;20461;-70
2023/07/16 07:01:27;;;;;;;56.30;2.10;;;;;;;;;;4991980;28;20978;-71
2023/07/16 07:03:54;;;;;;;56.17;1.80;;;;;;;;;;4991921;28;20521;-70
2023/07/16 07:06:21;;;;;;;56.40;2.00;;;;;;;;;;4991734;28;20470;-70
2023/07/16 07:08:49;;;;;;;56.47;2.00;;;;;;;;;;4991571;28;20454;-70
2023/07/16 07:11:16;;;;;;;56.37;2.00;;;;;;;;;;4991406;28;20470;-70
2023/07/16 07:13:44;;;;;;;56.90;2.10;;;;;;;;;;4993148;28;20454;-70
2023/07/16 07:16:11;;;;;;;56.40;1.90;;;;;;;;;;4995855;28;20457;-70
2023/07/16 07:18:38;;;;;;;56.30;1.80;;;;;;;;;;4995684;28;20462;-70
2023/07/16 07:21:06;;;;;;;56.27;1.70;;;;;;;;;;4995520;28;20473;-70
2023/07/16 07:23:33;;;;;;;56.43;1.80;;;;;;;;;;4995656;28;20450;-70
2023/07/16 07:26:00;;;;;;;56.60;1.90;;;;;;;;;;4995496;28;20454;-70
2023/07/16 07:28:29;;;;;;;56.67;2.07;;;;;;;;;;4995726;28;20458;-70
2023/07/16 07:30:57;;;;;;;57.10;2.60;;;;;;;;;;4995169;28;20910;-70
2023/07/16 07:33:24;;;;;;;56.23;1.80;;;;;;;;;;4995437;28;20466;-70
2023/07/16 07:35:55;;;;;;;56.47;1.87;;;;;;;;;;4995311;28;20450;-70
2023/07/16 07:38:22;;;;;;;56.43;1.90;;;;;;;;;;4995581;28;20450;-70
2023/07/16 07:40:49;;;;;;;56.47;1.80;;;;;;;;;;4994871;28;20454;-70
2023/07/16 07:43:16;;;;;;;56.17;1.70;;;;;;;;;;4995053;28;20447;-70
2023/07/16 07:45:43;;;;;;;56.50;1.90;;;;;;;;;;4995087;28;20453;-70
2023/07/16 07:48:12;;;;;;;56.50;2.10;;;;;;;;;;4995071;28;20509;-70
2023/07/16 07:50:39;;;;;;;56.47;1.90;;;;;;;;;;4994714;28;20517;-70
2023/07/16 07:53:06;;;;;;;56.27;1.67;;;;;;;;;;4995040;28;20987;-69
2023/07/16 07:55:35;;;;;;;56.70;1.90;;;;;;;;;;4994986;28;20939;-69
2023/07/16 07:58:02;;;;;;;56.27;1.93;;;;;;;;;;4994922;28;20963;-69
2023/07/16 08:00:29;;;;;;;56.50;2.00;;;;;;;;;;4993949;28;20966;-70
2023/07/16 08:02:56;;;;;;;56.57;2.00;;;;;;;;;;4994557;28;20478;-70
2023/07/16 08:05:25;;;;;;;56.37;1.80;;;;;;;;;;4994710;28;20459;-70
2023/07/16 08:07:53;;;;;;;56.43;1.90;;;;;;;;;;4994723;28;20447;-70
2023/07/16 08:10:20;;;;;;;56.67;2.10;;;;;;;;;;4994672;28;20518;-70
2023/07/16 08:12:47;;;;;;;56.70;2.00;;;;;;;;;;4994481;28;20478;-70
2023/07/16 08:15:14;;;;;;;56.43;1.77;;;;;;;;;;4994628;28;20457;-70
2023/07/16 08:17:42;;;;;;;56.30;1.93;;;;;;;;;;4994871;28;20455;-70
2023/07/16 08:20:09;;;;;;;55.80;1.90;;;;;;;;;;4994602;28;20445;-70
2023/07/16 08:22:38;;;;;;;56.37;1.73;;;;;;;;;;4994702;28;20553;-70
2023/07/16 08:25:05;;;;;;;56.60;1.77;;;;;;;;;;4993716;28;20451;-70
2023/07/16 08:27:32;;;;;;;57.70;2.53;;;;;;;;;;4994475;28;20447;-71
2023/07/16 08:29:59;;;;;;;56.07;1.60;;;;;;;;;;4994358;28;20486;-70
2023/07/16 08:32:26;;;;;;;56.40;2.00;;;;;;;;;;4994137;28;20999;-70
2023/07/16 08:34:54;;;;;;;56.10;1.80;;;;;;;;;;4994615;28;20451;-70
2023/07/16 08:37:21;;;;;;;56.50;1.80;;;;;;;;;;4994683;28;20451;-69
2023/07/16 08:39:51;;;;;;;56.37;1.93;;;;;;;;;;4994256;28;20958;-69
2023/07/16 08:42:19;;;;;;;56.50;1.70;;;;;;;;;;4993928;28;20494;-70
2023/07/16 08:44:46;;;;;;;56.33;1.90;;;;;;;;;;4994020;28;20966;-69
2023/07/16 08:47:13;;;;;;;55.90;1.80;;;;;;;;;;4994202;28;20447;-69
2023/07/16 08:49:40;;;;;;;56.50;1.70;;;;;;;;;;4994127;28;21101;-69
2023/07/16 08:52:08;;;;;;;56.27;2.10;;;;;;;;;;4993876;28;20470;-70
2023/07/16 08:54:35;;;;;;;56.37;2.00;;;;;;;;;;4994039;28;20451;-69
2023/07/16 08:57:04;;;;;;;56.40;1.90;;;;;;;;;;4993699;28;20970;-69
2023/07/16 08:59:31;;;;;;;56.23;2.00;;;;;;;;;;4994201;28;20450;-69
2023/07/16 09:01:58;;;;;;;56.60;2.10;;;;;;;;;;4993691;28;20471;-69
2023/07/16 09:04:25;;;;;;;56.30;1.90;;;;;;;;;;4993835;28;20969;-70
2023/07/16 09:06:53;;;;;;;56.13;1.90;;;;;;;;;;4993900;28;20545;-70
2023/07/16 09:09:23;;;;;;;56.20;2.00;;;;;;;;;;4993769;28;20978;-70
2023/07/16 09:11:50;;;;;;;56.47;1.90;;;;;;;;;;4993188;28;21025;-70
2023/07/16 09:14:19;;;;;;;56.50;1.97;;;;;;;;;;4993635;28;20963;-70
2023/07/16 09:16:49;;;;;;;56.53;2.03;;;;;;;;;;4993842;28;20450;-70
2023/07/16 09:19:18;;;;;;;56.30;2.00;;;;;;;;;;4993575;28;20466;-69
2023/07/16 09:21:47;;;;;;;56.30;1.90;;;;;;;;;;4993234;28;20477;-69
2023/07/16 09:24:14;;;;;;;57.00;2.30;;;;;;;;;;4993286;28;20458;-70
2023/07/16 09:26:49;;;;;;;56.40;1.90;;;;;;;;;;4993565;28;20525;-70
2023/07/16 09:29:16;;;;;;;56.57;2.00;;;;;;;;;;4993474;28;20450;-70
2023/07/16 09:31:54;;;;;;;56.80;2.07;;;;;;;;;;4993067;28;20498;-70
2023/07/16 09:34:21;;;;;;;56.70;2.13;;;;;;;;;;4993399;28;20497;-70
2023/07/16 09:36:49;;;;;;;56.37;1.97;;;;;;;;;;4993144;28;20808;-69
2023/07/16 09:39:18;;;;;;;56.67;2.20;;;;;;;;;;4993316;28;20458;-70
2023/07/16 09:41:45;;;;;;;56.57;2.30;;;;;;;;;;4992943;28;20559;-70
2023/07/16 09:44:13;;;;;;;55.97;1.80;;;;;;;;;;4992947;28;20473;-70
2023/07/16 09:46:40;;;;;;;56.53;1.70;;;;;;;;;;4993010;28;20451;-70
2023/07/16 09:49:09;;;;;;;56.17;1.80;;;;;;;;;;4992900;28;20480;-69
2023/07/16 09:51:37;;;;;;;56.40;1.80;;;;;;;;;;4993021;28;20498;-70
2023/07/16 09:54:04;;;;;;;56.30;1.80;;;;;;;;;;4993187;28;20457;-70
2023/07/16 09:56:33;;;;;;;56.30;1.60;;;;;;;;;;4992771;28;20955;-70
2023/07/16 09:59:01;;;;;;;56.17;1.70;;;;;;;;;;4991493;28;20471;-70
2023/07/16 10:01:28;;;;;;;56.37;1.70;;;;;;;;;;4992192;28;20467;-70
2023/07/16 10:03:55;;;;;;;56.60;2.30;;;;;;;;;;4992359;28;20485;-70
2023/07/16 10:06:24;;;;;;;56.37;2.00;;;;;;;;;;4992516;28;20455;-70
2023/07/16 10:08:51;;;;;;;56.77;2.00;;;;;;;;;;4992479;28;20459;-70
2023/07/16 10:11:19;;;;;;;55.97;1.80;;;;;;;;;;4992078;28;20497;-70
2023/07/16 10:13:50;;;;;;;56.10;1.80;;;;;;;;;;4992367;28;20836;-70
2023/07/16 10:16:21;;;;;;;56.50;1.87;;;;;;;;;;4991603;28;20455;-69
2023/07/16 10:18:53;;;;;;;56.17;2.10;;;;;;;;;;4992631;28;20521;-69
2023/07/16 10:21:25;;;;;;;56.07;1.70;;;;;;;;;;4991966;28;20462;-70
2023/07/16 10:23:58;;;;;;;56.27;1.87;;;;;;;;;;4992760;28;20457;-71
2023/07/16 10:26:28;;;;;;;56.40;1.63;;;;;;;;;;4992318;28;20855;-70
2023/07/16 10:28:55;;;;;;;56.60;1.80;;;;;;;;;;4992051;28;20462;-70
2023/07/16 10:31:23;;;;;;;56.20;1.70;;;;;;;;;;4991930;28;20513;-70
2023/07/16 10:34:04;;;;;;;56.60;2.20;;;;;;;;;;4992033;28;21038;-70
2023/07/16 10:36:38;;;;;;;56.27;1.87;;;;;;;;;;4991894;28;20485;-70
2023/07/16 10:39:05;;;;;;;56.27;1.70;;;;;;;;;;4992007;28;20461;-71
2023/07/16 10:41:32;;;;;;;56.47;1.93;;;;;;;;;;4991409;28;20485;-70
2023/07/16 10:44:00;;;;;;;55.97;1.50;;;;;;;;;;4991475;28;20462;-70
2023/07/16 10:46:27;;;;;;;56.10;1.77;;;;;;;;;;4992031;28;20482;-71
2023/07/16 10:48:54;;;;;;;56.30;1.87;;;;;;;;;;4991759;28;20473;-70
2023/07/16 10:51:26;;;;;;;56.77;1.70;;;;;;;;;;4991696;28;20497;-71
2023/07/16 10:53:56;;;;;;;55.80;1.50;;;;;;;;;;4991732;28;20533;-71
2023/07/16 10:56:23;;;;;;;55.90;1.60;;;;;;;;;;4991834;28;20459;-70
2023/07/16 10:58:50;;;;;;;55.77;1.80;;;;;;;;;;4991956;28;20463;-71
2023/07/16 11:01:18;;;;;;;55.23;1.40;;;;;;;;;;4991289;28;20561;-68
2023/07/16 11:03:45;;;;;;;55.47;1.50;;;;;;;;;;4991872;28;20451;-69
2023/07/16 11:06:12;;;;;;;55.97;2.90;;;;;;;;;;4991667;28;20459;-69
2023/07/16 11:08:39;;;;;;;55.50;1.80;;;;;;;;;;4991851;28;20531;-69
2023/07/16 11:11:08;;;;;;;55.20;1.50;;;;;;;;;;4991434;28;20495;-70
2023/07/16 11:13:35;;;;;;;55.17;1.50;;;;;;;;;;4991864;28;20462;-70
2023/07/16 11:16:08;;;;;;;55.03;1.50;;;;;;;;;;4991696;28;20461;-70
2023/07/16 11:18:35;;;;;;;55.33;1.60;;;;;;;;;;4991679;28;20601;-70
2023/07/16 11:21:02;;;;;;;55.80;2.27;;;;;;;;;;4991233;28;20451;-69
2023/07/16 11:23:30;;;;;;;55.97;1.60;;;;;;;;;;4991897;28;20482;-69
2023/07/16 11:25:57;;;;;;;55.77;1.60;;;;;;;;;;4991683;28;20457;-69
2023/07/16 11:28:25;;;;;;;55.37;1.60;;;;;;;;;;4991587;28;20955;-70
2023/07/16 11:30:52;;;;;;;55.27;1.43;;;;;;;;;;4991142;28;21031;-70
2023/07/16 11:33:19;;;;;;;55.20;1.60;;;;;;;;;;4991347;28;20477;-69
2023/07/16 11:35:49;;;;;;;55.50;1.67;;;;;;;;;;4991306;28;20450;-70
2023/07/16 11:38:19;;;;;;;55.57;1.60;;;;;;;;;;4991722;28;20510;-70
2023/07/16 11:40:46;;;;;;;55.97;1.60;;;;;;;;;;4991276;28;20451;-70
2023/07/16 11:43:13;;;;;;;57.00;1.77;;;;;;;;;;4991444;28;20944;-70
2023/07/16 11:45:42;;;;;;;55.90;1.50;;;;;;;;;;4991360;28;20445;-70
2023/07/16 11:48:09;;;;;;;55.90;1.60;;;;;;;;;;4991346;28;20451;-70
2023/07/16 11:50:36;;;;;;;55.83;1.67;;;;;;;;;;4990946;28;20439;-70
2023/07/16 11:53:03;;;;;;;55.87;1.70;;;;;;;;;;4991435;28;20962;-70
2023/07/16 11:55:30;;;;;;;55.53;1.33;;;;;;;;;;4991300;28;20462;-70
2023/07/16 11:57:59;;;;;;;55.40;1.50;;;;;;;;;;4991399;28;20813;-70
2023/07/16 12:00:26;;;;;;;55.53;1.50;;;;;;;;;;4992704;28;20467;-70
2023/07/16 12:02:55;;;;;;;55.97;2.47;;;;;;;;;;4994924;28;20470;-70
2023/07/16 12:05:26;;;;;;;55.60;1.87;;;;;;;;;;4994742;28;20458;-70
2023/07/16 12:07:53;;;;;;;55.13;1.53;;;;;;;;;;4995312;28;20821;-70
2023/07/16 12:10:20;;;;;;;55.30;1.70;;;;;;;;;;4994590;28;20966;-70
2023/07/16 12:12:48;;;;;;;55.17;1.80;;;;;;;;;;4995138;28;21006;-70
2023/07/16 12:15:15;;;;;;;55.67;1.83;;;;;;;;;;4994548;28;20473;-70
2023/07/16 12:17:42;;;;;;;55.40;1.80;;;;;;;;;;4994688;28;20451;-71
2023/07/16 12:20:11;;;;;;;55.23;2.03;;;;;;;;;;4994218;28;20966;-71
2023/07/16 12:22:38;;;;;;;54.90;2.00;;;;;;;;;;4994735;28;20473;-70
2023/07/16 12:25:05;;;;;;;54.83;1.90;;;;;;;;;;4994553;28;20496;-68
2023/07/16 12:27:32;;;;;;;54.97;1.60;;;;;;;;;;4994331;28;20451;-68
2023/07/16 12:29:59;;;;;;;54.80;1.80;;;;;;;;;;4994469;28;20454;-68
2023/07/16 12:32:26;;;;;;;54.63;1.70;;;;;;;;;;4994218;28;20494;-69
2023/07/16 12:34:54;;;;;;;54.97;1.60;;;;;;;;;;4994498;28;20478;-70
2023/07/16 12:37:23;;;;;;;55.50;1.70;;;;;;;;;;4994175;28;20478;-70
2023/07/16 12:39:50;;;;;;;55.20;1.70;;;;;;;;;;4994264;28;20818;-70
2023/07/16 12:42:17;;;;;;;55.20;1.50;;;;;;;;;;4994020;28;20808;-70
2023/07/16 12:44:44;;;;;;;55.80;1.97;;;;;;;;;;4994225;28;20832;-70
2023/07/16 12:47:11;;;;;;;54.93;1.80;;;;;;;;;;4994182;28;20478;-69
2023/07/16 12:49:38;;;;;;;55.40;1.60;;;;;;;;;;4994127;28;20450;-69
2023/07/16 12:52:05;;;;;;;55.07;1.57;;;;;;;;;;4993704;28;20494;-69
2023/07/16 12:54:34;;;;;;;55.23;1.73;;;;;;;;;;4993860;28;20970;-70
2023/07/16 12:57:01;;;;;;;55.00;1.67;;;;;;;;;;4994128;28;20459;-70
2023/07/16 12:59:28;;;;;;;55.17;1.80;;;;;;;;;;4994017;28;20451;-70
2023/07/16 13:01:55;;;;;;;55.27;2.03;;;;;;;;;;4993541;28;20816;-70
2023/07/16 13:04:22;;;;;;;55.50;1.70;;;;;;;;;;4993918;28;20909;-70
2023/07/16 13:06:49;;;;;;;55.30;1.67;;;;;;;;;;4993708;28;20446;-70
2023/07/16 13:09:17;;;;;;;55.20;1.87;;;;;;;;;;4993585;28;20465;-70
2023/07/16 13:11:45;;;;;;;55.47;1.77;;;;;;;;;;4992557;28;21023;-70
2023/07/16 13:14:12;;;;;;;56.43;2.33;;;;;;;;;;4993733;28;20454;-70
2023/07/16 13:16:39;;;;;;;56.33;2.40;;;;;;;;;;4993861;28;20458;-70
2023/07/16 13:19:06;;;;;;;55.30;1.80;;;;;;;;;;4993477;28;20964;-70
2023/07/16 13:21:34;;;;;;;54.87;1.67;;;;;;;;;;4993133;28;20470;-69
2023/07/16 13:24:01;;;;;;;54.97;1.63;;;;;;;;;;4993636;28;20482;-70
2023/07/16 13:26:28;;;;;;;55.10;2.20;;;;;;;;;;4993253;28;20829;-70
2023/07/16 13:28:57;;;;;;;55.80;2.53;;;;;;;;;;4990296;28;20465;-71
2023/07/16 13:31:24;;;;;;;54.77;1.90;;;;;;;;;;4992309;28;20489;-70
2023/07/16 13:33:51;;;;;;;55.00;2.00;;;;;;;;;;4992511;28;20463;-70
2023/07/16 13:36:18;;;;;;;54.57;1.63;;;;;;;;;;4990927;28;20455;-70
2023/07/16 13:38:45;;;;;;;55.00;1.70;;;;;;;;;;4993088;28;20451;-70
2023/07/16 13:41:12;;;;;;;54.80;1.77;;;;;;;;;;4992791;28;21118;-70
2023/07/16 13:43:39;;;;;;;55.93;1.97;;;;;;;;;;4993068;28;20465;-70
2023/07/16 13:46:08;;;;;;;55.90;2.13;;;;;;;;;;4993072;28;20454;-70
2023/07/16 13:48:35;;;;;;;55.00;2.00;;;;;;;;;;4992865;28;20446;-70
2023/07/16 13:51:02;;;;;;;55.20;2.33;;;;;;;;;;4992412;28;20455;-70
2023/07/16 13:53:29;;;;;;;55.17;1.80;;;;;;;;;;4993055;28;20451;-69
2023/07/16 13:55:56;;;;;;;56.20;2.57;;;;;;;;;;4992893;28;20455;-70
2023/07/16 13:58:23;;;;;;;55.57;1.60;;;;;;;;;;4992830;28;20471;-70
2023/07/16 14:00:50;;;;;;;55.70;1.77;;;;;;;;;;4991632;28;20455;-69
2023/07/16 14:03:19;;;;;;;56.20;1.60;;;;;;;;;;4992917;28;20458;-70
2023/07/16 14:05:46;;;;;;;55.50;1.70;;;;;;;;;;4992637;28;20722;-69
2023/07/16 14:08:13;;;;;;;55.23;1.63;;;;;;;;;;4992533;28;20835;-70
2023/07/16 14:10:40;;;;;;;55.60;1.90;;;;;;;;;;4992500;28;20450;-70
2023/07/16 14:13:07;;;;;;;55.53;1.80;;;;;;;;;;4992404;28;20502;-69
2023/07/16 14:15:34;;;;;;;55.30;1.70;;;;;;;;;;4992367;28;20451;-70
2023/07/16 14:18:01;;;;;;;55.37;1.67;;;;;;;;;;4992084;28;20471;-70
2023/07/16 14:20:30;;;;;;;58.13;3.00;;;;;;;;;;4991993;28;20998;-69
2023/07/16 14:22:57;;;;;;;55.27;1.50;;;;;;;;;;4991585;28;20467;-70
2023/07/16 14:25:24;;;;;;;55.30;1.50;;;;;;;;;;4992417;28;20461;-69
2023/07/16 14:27:51;;;;;;;55.43;1.63;;;;;;;;;;4992051;28;20465;-70
2023/07/16 14:30:18;;;;;;;55.50;2.03;;;;;;;;;;4991868;28;20942;-70
2023/07/16 14:32:45;;;;;;;55.23;1.70;;;;;;;;;;4992159;28;20490;-70